UAE1DM OMDB-EDDM
Flight info
| Callsign | UAE1DM |
|---|---|
| Flight time | N/A |
| Altitude | 34000 |
| Route | RIDAP M557 TUMAK L602 BOXIK/N0491F360 L602 GADSI M860 SEPTU DCT VUSEB M860 NINVA UM860 ODALI UL852 NEGEM DCT BULEN/N0473F380 DCT DIRER DCT TISAK DCT BABIT DCT GOTAR DCT AMADI Q113 NAPSA NAPSA1B |
| Aircraft | B77W/H-SDE1E2E3FGHIJ2J3J4J5M1RWXY/LB1D1 |
Departure
| Time | 2026-04-26 16:53 |
|---|---|
| Airport | Dubai International Airport (OMDB) |
Arrival
| Time | N/A |
|---|---|
| Airport | Munich Airport (EDDM) |
| Time | Latitude | Longitude | Altitude | Speed | Heading |
|---|---|---|---|---|---|
| 2026-04-26 16:11 | 25.24376 | 55.36935 | 26 ft | 0 kts | 31° |
| 2026-04-26 16:43 | 25.24369 | 55.36930 | 26 ft | 4 kts | 31° |
| 2026-04-26 16:43 | 25.24346 | 55.36914 | 27 ft | 4 kts | 31° |
| 2026-04-26 16:43 | 25.24323 | 55.36899 | 26 ft | 4 kts | 38° |
| 2026-04-26 16:44 | 25.24307 | 55.36878 | 26 ft | 4 kts | 76° |
| 2026-04-26 16:44 | 25.24305 | 55.36869 | 28 ft | 4 kts | 91° |
| 2026-04-26 16:44 | 25.24318 | 55.36830 | 31 ft | 4 kts | 122° |
| 2026-04-26 16:44 | 25.24324 | 55.36820 | 26 ft | 0 kts | 122° |
| 2026-04-26 16:46 | 25.24321 | 55.36823 | 26 ft | 4 kts | 122° |
| 2026-04-26 16:47 | 25.24284 | 55.36889 | 29 ft | 10 kts | 122° |
| 2026-04-26 16:47 | 25.24255 | 55.36941 | 26 ft | 6 kts | 121° |
| 2026-04-26 16:47 | 25.24231 | 55.36984 | 27 ft | 9 kts | 121° |
| 2026-04-26 16:47 | 25.24181 | 55.37075 | 30 ft | 17 kts | 122° |
| 2026-04-26 16:48 | 25.24123 | 55.37177 | 29 ft | 15 kts | 122° |
| 2026-04-26 16:48 | 25.24070 | 55.37271 | 26 ft | 14 kts | 121° |
| 2026-04-26 16:48 | 25.24022 | 55.37357 | 29 ft | 13 kts | 122° |
| 2026-04-26 16:48 | 25.23975 | 55.37449 | 26 ft | 17 kts | 111° |
| 2026-04-26 16:49 | 25.23992 | 55.37576 | 30 ft | 17 kts | 53° |
| 2026-04-26 16:49 | 25.24079 | 55.37650 | 26 ft | 15 kts | 32° |
| 2026-04-26 16:49 | 25.24166 | 55.37709 | 27 ft | 14 kts | 31° |
| 2026-04-26 16:49 | 25.24244 | 55.37759 | 26 ft | 12 kts | 32° |
| 2026-04-26 16:50 | 25.24298 | 55.37797 | 30 ft | 7 kts | 32° |
| 2026-04-26 16:50 | 25.24361 | 55.37844 | 27 ft | 20 kts | 34° |
| 2026-04-26 16:50 | 25.24470 | 55.37926 | 29 ft | 16 kts | 35° |
| 2026-04-26 16:50 | 25.24549 | 55.37986 | 28 ft | 13 kts | 35° |
| 2026-04-26 16:51 | 25.24616 | 55.38036 | 28 ft | 9 kts | 33° |
| 2026-04-26 16:51 | 25.24637 | 55.38050 | 28 ft | 0 kts | 32° |
| 2026-04-26 16:51 | 25.24691 | 55.38087 | 30 ft | 16 kts | 31° |
| 2026-04-26 16:52 | 25.24769 | 55.38090 | 31 ft | 11 kts | 317° |
| 2026-04-26 16:52 | 25.24813 | 55.38015 | 30 ft | 29 kts | 300° |
| 2026-04-26 16:52 | 25.25176 | 55.37358 | 32 ft | 120 kts | 301° |
| 2026-04-26 16:52 | 25.25716 | 55.36378 | 34 ft | 174 kts | 301° |
| 2026-04-26 16:53 | 25.26378 | 55.35214 | 475 ft | 181 kts | 301° |
| 2026-04-26 16:53 | 25.27054 | 55.34015 | 966 ft | 189 kts | 299° |
| 2026-04-26 16:53 | 25.27750 | 55.32772 | 1522 ft | 190 kts | 299° |
| 2026-04-26 16:53 | 25.28439 | 55.31505 | 2010 ft | 198 kts | 299° |
| 2026-04-26 16:54 | 25.29178 | 55.30180 | 2455 ft | 203 kts | 301° |
| 2026-04-26 16:54 | 25.29911 | 55.28895 | 3195 ft | 195 kts | 300° |
| 2026-04-26 16:54 | 25.30609 | 55.27634 | 3824 ft | 192 kts | 302° |
| 2026-04-26 16:54 | 25.31417 | 55.26358 | 3977 ft | 217 kts | 306° |
| 2026-04-26 16:55 | 25.32359 | 55.24949 | 4139 ft | 239 kts | 306° |
| 2026-04-26 16:55 | 25.33356 | 55.23435 | 4577 ft | 252 kts | 306° |
| 2026-04-26 16:55 | 25.34395 | 55.21834 | 5130 ft | 259 kts | 306° |
| 2026-04-26 16:55 | 25.35403 | 55.20187 | 5769 ft | 261 kts | 297° |
| 2026-04-26 16:56 | 25.35849 | 55.16160 | 7073 ft | 271 kts | 270° |
| 2026-04-26 16:56 | 25.35757 | 55.14072 | 7765 ft | 273 kts | 270° |
| 2026-04-26 16:56 | 25.35666 | 55.11966 | 8429 ft | 276 kts | 270° |
| 2026-04-26 16:57 | 25.35579 | 55.09835 | 9109 ft | 279 kts | 269° |
| 2026-04-26 16:57 | 25.35491 | 55.07681 | 9779 ft | 282 kts | 269° |
| 2026-04-26 16:57 | 25.35317 | 55.03229 | 10543 ft | 311 kts | 269° |
| 2026-04-26 16:58 | 25.35221 | 55.00757 | 10710 ft | 333 kts | 269° |
| 2026-04-26 16:58 | 25.35150 | 54.98986 | 10813 ft | 349 kts | 269° |
| 2026-04-26 16:58 | 25.35017 | 54.92454 | 11931 ft | 376 kts | 275° |
| 2026-04-26 16:59 | 25.35351 | 54.89586 | 12745 ft | 378 kts | 281° |
| 2026-04-26 16:59 | 25.36755 | 54.83941 | 14329 ft | 384 kts | 288° |
| 2026-04-26 17:00 | 25.38424 | 54.78292 | 15851 ft | 390 kts | 287° |
| 2026-04-26 17:00 | 25.40076 | 54.72542 | 17169 ft | 400 kts | 286° |
| 2026-04-26 17:00 | 25.40923 | 54.69587 | 17844 ft | 405 kts | 285° |
| 2026-04-26 17:01 | 25.41785 | 54.66605 | 18487 ft | 409 kts | 285° |
| 2026-04-26 17:01 | 25.42655 | 54.63592 | 19143 ft | 412 kts | 285° |
| 2026-04-26 17:01 | 25.43528 | 54.60574 | 19869 ft | 412 kts | 285° |
| 2026-04-26 17:01 | 25.44413 | 54.57558 | 20604 ft | 413 kts | 285° |
| 2026-04-26 17:02 | 25.45305 | 54.54533 | 21290 ft | 414 kts | 285° |
| 2026-04-26 17:02 | 25.46203 | 54.51492 | 21924 ft | 417 kts | 285° |
| 2026-04-26 17:02 | 25.47103 | 54.48434 | 22555 ft | 420 kts | 285° |
| 2026-04-26 17:02 | 25.48011 | 54.45341 | 23079 ft | 425 kts | 285° |
| 2026-04-26 17:03 | 25.48926 | 54.42217 | 23616 ft | 428 kts | 285° |
| 2026-04-26 17:03 | 25.49834 | 54.39120 | 24129 ft | 430 kts | 285° |
| 2026-04-26 17:03 | 25.50754 | 54.35975 | 24698 ft | 430 kts | 285° |
| 2026-04-26 17:03 | 25.51673 | 54.32829 | 25251 ft | 430 kts | 285° |
| 2026-04-26 17:04 | 25.52596 | 54.29669 | 25727 ft | 433 kts | 285° |
| 2026-04-26 17:04 | 25.53525 | 54.26477 | 26134 ft | 437 kts | 285° |
| 2026-04-26 17:04 | 25.54465 | 54.23266 | 26545 ft | 440 kts | 285° |
| 2026-04-26 17:04 | 25.55419 | 54.20035 | 26947 ft | 443 kts | 286° |
| 2026-04-26 17:05 | 25.56383 | 54.16781 | 27379 ft | 446 kts | 286° |
| 2026-04-26 17:05 | 25.57350 | 54.13515 | 27812 ft | 447 kts | 286° |
| 2026-04-26 17:05 | 25.58321 | 54.10232 | 28211 ft | 449 kts | 286° |
| 2026-04-26 17:05 | 25.59292 | 54.06938 | 28575 ft | 451 kts | 286° |
| 2026-04-26 17:06 | 25.60241 | 54.03664 | 28914 ft | 454 kts | 286° |
| 2026-04-26 17:06 | 25.61191 | 54.00320 | 29271 ft | 456 kts | 285° |
| 2026-04-26 17:06 | 25.62138 | 53.96967 | 29602 ft | 457 kts | 285° |
| 2026-04-26 17:06 | 25.63088 | 53.93597 | 29983 ft | 457 kts | 285° |
| 2026-04-26 17:07 | 25.64035 | 53.90241 | 30405 ft | 455 kts | 286° |
| 2026-04-26 17:07 | 25.64975 | 53.86916 | 30869 ft | 451 kts | 286° |
| 2026-04-26 17:07 | 25.65910 | 53.83608 | 31326 ft | 448 kts | 286° |
| 2026-04-26 17:07 | 25.66839 | 53.80319 | 31727 ft | 446 kts | 286° |
| 2026-04-26 17:08 | 25.67763 | 53.77045 | 32091 ft | 444 kts | 286° |
| 2026-04-26 17:08 | 25.68673 | 53.73819 | 32446 ft | 443 kts | 286° |
| 2026-04-26 17:08 | 25.69601 | 53.70523 | 32861 ft | 440 kts | 287° |
| 2026-04-26 17:08 | 25.70499 | 53.67338 | 33293 ft | 438 kts | 287° |
| 2026-04-26 17:09 | 25.71400 | 53.64126 | 33700 ft | 435 kts | 287° |
| 2026-04-26 17:09 | 25.72006 | 53.61962 | 33911 ft | 435 kts | 287° |
| 2026-04-26 17:09 | 25.74102 | 53.54478 | 33879 ft | 436 kts | 287° |
| 2026-04-26 17:10 | 25.75896 | 53.48081 | 33900 ft | 433 kts | 287° |
| 2026-04-26 17:10 | 25.77700 | 53.41711 | 33897 ft | 432 kts | 287° |
| 2026-04-26 17:11 | 25.79481 | 53.35406 | 33890 ft | 430 kts | 287° |
| 2026-04-26 17:11 | 25.81262 | 53.29073 | 33891 ft | 430 kts | 287° |
| 2026-04-26 17:12 | 25.83948 | 53.19558 | 33907 ft | 432 kts | 288° |
| 2026-04-26 17:13 | 25.87538 | 53.10368 | 33900 ft | 434 kts | 293° |
| 2026-04-26 17:14 | 25.91260 | 53.01242 | 33904 ft | 435 kts | 292° |
| 2026-04-26 17:14 | 25.94983 | 52.92048 | 33902 ft | 435 kts | 292° |
| 2026-04-26 17:15 | 25.98683 | 52.82887 | 33906 ft | 435 kts | 292° |
| 2026-04-26 17:16 | 26.01154 | 52.76759 | 33906 ft | 435 kts | 292° |
| 2026-04-26 17:16 | 26.03717 | 52.70682 | 33914 ft | 434 kts | 295° |
| 2026-04-26 17:17 | 26.06474 | 52.64705 | 33912 ft | 434 kts | 295° |
| 2026-04-26 17:17 | 26.09199 | 52.58711 | 33907 ft | 434 kts | 294° |
| 2026-04-26 17:18 | 26.11877 | 52.52753 | 33908 ft | 433 kts | 294° |
| 2026-04-26 17:18 | 26.14589 | 52.46769 | 33912 ft | 432 kts | 294° |
| 2026-04-26 17:19 | 26.18646 | 52.37813 | 33924 ft | 432 kts | 294° |
| 2026-04-26 17:19 | 26.21328 | 52.31876 | 33915 ft | 432 kts | 294° |
| 2026-04-26 17:20 | 26.23116 | 52.27864 | 33920 ft | 432 kts | 294° |
| 2026-04-26 17:20 | 26.26572 | 52.19852 | 33914 ft | 431 kts | 293° |
| 2026-04-26 17:21 | 26.29165 | 52.13836 | 33918 ft | 430 kts | 293° |
| 2026-04-26 17:21 | 26.31761 | 52.07832 | 33930 ft | 430 kts | 293° |
| 2026-04-26 17:22 | 26.34318 | 52.01865 | 33924 ft | 429 kts | 292° |
| 2026-04-26 17:22 | 26.36883 | 51.95853 | 33922 ft | 429 kts | 292° |
| 2026-04-26 17:23 | 26.39090 | 51.89693 | 33926 ft | 428 kts | 288° |
| 2026-04-26 17:23 | 26.41150 | 51.83459 | 33923 ft | 428 kts | 288° |
| 2026-04-26 17:24 | 26.43238 | 51.77282 | 33921 ft | 429 kts | 289° |
| 2026-04-26 17:24 | 26.45343 | 51.71057 | 33941 ft | 429 kts | 288° |
| 2026-04-26 17:25 | 26.47452 | 51.64827 | 33938 ft | 429 kts | 288° |
| 2026-04-26 17:25 | 26.49547 | 51.58592 | 33938 ft | 428 kts | 288° |
| 2026-04-26 17:26 | 26.51599 | 51.52400 | 33929 ft | 428 kts | 288° |
| 2026-04-26 17:26 | 26.53662 | 51.46164 | 33927 ft | 428 kts | 288° |
| 2026-04-26 17:27 | 26.55726 | 51.39928 | 33935 ft | 428 kts | 288° |
| 2026-04-26 17:27 | 26.57785 | 51.33687 | 33940 ft | 428 kts | 288° |
| 2026-04-26 17:28 | 26.59848 | 51.27450 | 33928 ft | 428 kts | 287° |
| 2026-04-26 17:28 | 26.61897 | 51.21257 | 33932 ft | 428 kts | 287° |
| 2026-04-26 17:29 | 26.63275 | 51.17086 | 33930 ft | 427 kts | 287° |
| 2026-04-26 17:29 | 26.66006 | 51.08793 | 33931 ft | 427 kts | 287° |
| 2026-04-26 17:30 | 26.68054 | 51.02567 | 33931 ft | 427 kts | 287° |
| 2026-04-26 17:30 | 26.70083 | 50.96325 | 33942 ft | 427 kts | 287° |
| 2026-04-26 17:31 | 26.72068 | 50.90123 | 33938 ft | 426 kts | 287° |
| 2026-04-26 17:31 | 26.74066 | 50.83885 | 33928 ft | 426 kts | 287° |
| 2026-04-26 17:32 | 26.76061 | 50.77648 | 33934 ft | 426 kts | 287° |
| 2026-04-26 17:32 | 26.78044 | 50.71450 | 33939 ft | 426 kts | 287° |
| 2026-04-26 17:33 | 26.80634 | 50.65448 | 33970 ft | 431 kts | 296° |
| 2026-04-26 17:34 | 26.85851 | 50.57191 | 33936 ft | 436 kts | 304° |
| 2026-04-26 17:34 | 26.89069 | 50.52856 | 33935 ft | 435 kts | 304° |
| 2026-04-26 17:35 | 26.93631 | 50.46866 | 33939 ft | 436 kts | 307° |
| 2026-04-26 17:35 | 26.97811 | 50.41930 | 33953 ft | 436 kts | 307° |
| 2026-04-26 17:36 | 27.01279 | 50.37826 | 33940 ft | 436 kts | 307° |
| 2026-04-26 17:36 | 27.05430 | 50.32875 | 33943 ft | 435 kts | 307° |
| 2026-04-26 17:37 | 27.10224 | 50.27096 | 33940 ft | 435 kts | 307° |
| 2026-04-26 17:37 | 27.14349 | 50.22127 | 33960 ft | 436 kts | 308° |
| 2026-04-26 17:38 | 27.20598 | 50.16222 | 33950 ft | 446 kts | 316° |
| 2026-04-26 17:38 | 27.26417 | 50.11459 | 33939 ft | 445 kts | 316° |
| 2026-04-26 17:39 | 27.31398 | 50.07326 | 33937 ft | 444 kts | 316° |
| 2026-04-26 17:39 | 27.35529 | 50.03896 | 33937 ft | 444 kts | 316° |
| 2026-04-26 17:40 | 27.39645 | 50.00379 | 33937 ft | 443 kts | 314° |
| 2026-04-26 17:40 | 27.45269 | 49.95408 | 33931 ft | 442 kts | 314° |
| 2026-04-26 17:41 | 27.50904 | 49.90429 | 33949 ft | 443 kts | 314° |
| 2026-04-26 17:41 | 27.54970 | 49.86849 | 33935 ft | 443 kts | 314° |
| 2026-04-26 17:42 | 27.59788 | 49.82605 | 33932 ft | 442 kts | 314° |
| 2026-04-26 17:42 | 27.64631 | 49.78334 | 33933 ft | 442 kts | 314° |
| 2026-04-26 17:43 | 27.69471 | 49.74061 | 33947 ft | 442 kts | 314° |
| 2026-04-26 17:43 | 27.74268 | 49.69819 | 33934 ft | 441 kts | 314° |
| 2026-04-26 17:44 | 27.79092 | 49.65548 | 33936 ft | 440 kts | 314° |
| 2026-04-26 17:44 | 27.83887 | 49.61270 | 33951 ft | 439 kts | 314° |
| 2026-04-26 17:45 | 27.88674 | 49.56981 | 33939 ft | 439 kts | 314° |
| 2026-04-26 17:45 | 27.93465 | 49.52688 | 33933 ft | 439 kts | 314° |
| 2026-04-26 17:46 | 27.98219 | 49.48427 | 33934 ft | 439 kts | 314° |
| 2026-04-26 17:46 | 28.03007 | 49.44129 | 33930 ft | 439 kts | 313° |
| 2026-04-26 17:47 | 28.06971 | 49.40532 | 33933 ft | 439 kts | 313° |
| 2026-04-26 17:47 | 28.12540 | 49.35451 | 33933 ft | 440 kts | 313° |
| 2026-04-26 17:48 | 28.17276 | 49.31126 | 33934 ft | 440 kts | 313° |
| 2026-04-26 17:48 | 28.22053 | 49.26763 | 33949 ft | 441 kts | 313° |
| 2026-04-26 17:49 | 28.26833 | 49.22391 | 33935 ft | 441 kts | 313° |
| 2026-04-26 17:49 | 28.31596 | 49.18004 | 33924 ft | 441 kts | 313° |
| 2026-04-26 17:50 | 28.36324 | 49.13633 | 33950 ft | 441 kts | 313° |
| 2026-04-26 17:50 | 28.41176 | 49.09337 | 33932 ft | 447 kts | 317° |
| 2026-04-26 17:51 | 28.46346 | 49.05417 | 33924 ft | 447 kts | 317° |
| 2026-04-26 17:51 | 28.51514 | 49.01496 | 33926 ft | 446 kts | 317° |
| 2026-04-26 17:52 | 28.56664 | 48.97555 | 33939 ft | 446 kts | 317° |
| 2026-04-26 17:52 | 28.61780 | 48.93632 | 33931 ft | 447 kts | 317° |
| 2026-04-26 17:53 | 28.66930 | 48.89676 | 33927 ft | 446 kts | 317° |
| 2026-04-26 17:54 | 28.74647 | 48.83735 | 33923 ft | 447 kts | 317° |
| 2026-04-26 17:54 | 28.79800 | 48.79771 | 33930 ft | 447 kts | 317° |
| 2026-04-26 17:55 | 28.84928 | 48.75831 | 33931 ft | 448 kts | 317° |
| 2026-04-26 17:55 | 28.90103 | 48.71863 | 33930 ft | 449 kts | 317° |